Terminal Aerodrome Forecast
Issued by NWS

Home | Current Version | Previous Version | Text Only | Print | Product List | Glossary On
Versions: 1 2 3 4 5 6 7 8 9 10 11 12
000
FTUS42 TJSJ 201720
TAFJMZ
TAF
TJMZ 201720Z 2018/2118 26007KT P6SM VCSH SCT030 SCT040
     FM201900 23008KT P6SM VCSH SCT025 BKN035
     FM202200 07006KT P6SM FEW030 SCT060
     FM211430 26007KT P6SM SCT030 SCT045
      AMD NOT SKED=

USA.gov is the U.S. government's official web portal to all federal, state and local government web resources and services.